createdAt,value
2022-12-25T00:00:20.718Z,93839.00
2022-12-25T00:02:49.531Z,93839.00
2022-12-25T00:05:17.945Z,93828.09
2022-12-25T00:07:46.127Z,93816.94
2022-12-25T00:10:14.219Z,93822.97
2022-12-25T00:12:42.456Z,93825.53
2022-12-25T00:15:10.841Z,93829.50
2022-12-25T00:17:38.795Z,93841.78
2022-12-25T00:20:07.471Z,93839.34
2022-12-25T00:22:35.770Z,93841.19
2022-12-25T00:25:04.275Z,93831.28
2022-12-25T00:27:34.213Z,93844.94
2022-12-25T00:30:02.397Z,93839.38
2022-12-25T00:32:30.298Z,93853.75
2022-12-25T00:34:58.502Z,93852.22
2022-12-25T00:37:26.318Z,93854.88
2022-12-25T00:39:54.276Z,93860.75
2022-12-25T00:42:23.995Z,93866.00
2022-12-25T00:44:52.157Z,93867.00
2022-12-25T00:47:20.050Z,93862.94
2022-12-25T00:49:48.285Z,93855.81
2022-12-25T00:52:16.275Z,93864.81
2022-12-25T00:54:44.139Z,93844.06
2022-12-25T00:57:12.198Z,93865.31
2022-12-25T00:59:40.286Z,93859.44
2022-12-25T01:02:23.761Z,93858.03
2022-12-25T01:04:57.252Z,93865.03
2022-12-25T01:07:26.902Z,93875.47
2022-12-25T01:10:13.411Z,93866.63
2022-12-25T01:12:43.075Z,93870.03
2022-12-25T01:15:12.215Z,93867.19
2022-12-25T01:17:40.417Z,93854.47
2022-12-25T01:20:09.547Z,93857.63
2022-12-25T01:22:37.592Z,93857.16
2022-12-25T01:25:06.742Z,93845.16
2022-12-25T01:27:35.456Z,93868.53
2022-12-25T01:30:04.269Z,93864.19
2022-12-25T01:32:32.297Z,93861.94
2022-12-25T01:35:00.210Z,93866.66
2022-12-25T01:37:28.256Z,93866.13
2022-12-25T01:39:56.064Z,93863.72
2022-12-25T01:42:24.304Z,93865.97
2022-12-25T01:44:52.207Z,93862.38
2022-12-25T01:47:20.125Z,93864.50
2022-12-25T01:49:50.958Z,93854.47
2022-12-25T01:52:25.544Z,93859.13
2022-12-25T01:54:59.694Z,93860.41
2022-12-25T01:57:32.056Z,93848.72
2022-12-25T02:00:01.800Z,93862.09
2022-12-25T02:02:33.467Z,93866.16
2022-12-25T02:05:08.371Z,93860.31
2022-12-25T02:07:38.650Z,93870.88
2022-12-25T02:10:07.938Z,93850.56
2022-12-25T02:12:36.830Z,93875.72
2022-12-25T02:15:11.978Z,93872.50
2022-12-25T02:18:07.917Z,93871.91
2022-12-25T02:21:10.987Z,93870.06
2022-12-25T02:24:01.613Z,93862.34
2022-12-25T02:26:55.755Z,93868.03
2022-12-25T02:29:33.631Z,93861.53
2022-12-25T02:32:35.222Z,93871.47
2022-12-25T02:35:13.012Z,93863.53
2022-12-25T02:38:08.625Z,93868.59
2022-12-25T02:40:51.552Z,93863.53
2022-12-25T02:43:50.393Z,93870.03
2022-12-25T02:46:40.664Z,93867.00
2022-12-25T02:49:47.065Z,93866.59
2022-12-25T02:52:38.237Z,93861.94
2022-12-25T02:55:38.763Z,93867.19
2022-12-25T03:00:37.041Z,93866.59
2022-12-25T03:03:27.835Z,93874.72
2022-12-25T03:06:18.786Z,93882.03
2022-12-25T03:08:50.492Z,93881.84
2022-12-25T03:11:34.072Z,93884.06
2022-12-25T03:14:24.756Z,93867.81
2022-12-25T03:16:56.710Z,93898.66
2022-12-25T03:19:50.478Z,93885.47
2022-12-25T03:22:47.204Z,93897.63
2022-12-25T03:25:34.828Z,93901.66
2022-12-25T03:28:04.083Z,93907.53
2022-12-25T03:31:08.922Z,93909.34
2022-12-25T03:34:17.327Z,93912.69
2022-12-25T03:37:18.361Z,93914.75
2022-12-25T03:40:27.891Z,93918.81
2022-12-25T03:44:03.188Z,93925.66
2022-12-25T03:46:54.770Z,93932.31
2022-12-25T03:49:49.335Z,93933.66
2022-12-25T03:52:39.604Z,93937.53
2022-12-25T03:55:30.206Z,93934.38
2022-12-25T03:58:16.822Z,93923.41
2022-12-25T04:01:03.580Z,93944.38
2022-12-25T04:03:51.088Z,93954.66
2022-12-25T04:06:37.809Z,93958.81
2022-12-25T04:09:31.727Z,93964.81
2022-12-25T04:12:18.032Z,93956.34
2022-12-25T04:15:04.241Z,93964.00
2022-12-25T04:17:50.867Z,93960.84
2022-12-25T04:20:37.394Z,93965.16
2022-12-25T04:23:24.105Z,93963.34
2022-12-25T04:26:10.758Z,93977.53
2022-12-25T04:28:57.368Z,93967.47
2022-12-25T04:31:43.701Z,93970.38
2022-12-25T04:34:30.446Z,93971.53
2022-12-25T04:36:58.396Z,93971.59
2022-12-25T04:39:26.256Z,93969.94
2022-12-25T04:41:54.206Z,93973.69
2022-12-25T04:44:22.113Z,93980.88
2022-12-25T04:46:50.339Z,93983.22
2022-12-25T04:49:18.831Z,93986.78
2022-12-25T04:51:46.659Z,93989.28
2022-12-25T04:54:14.734Z,93996.81
2022-12-25T04:56:45.810Z,94001.25
2022-12-25T04:59:14.268Z,93996.38
2022-12-25T05:01:42.183Z,94002.56
2022-12-25T05:04:10.191Z,94003.34
2022-12-25T05:06:38.168Z,93996.91
2022-12-25T05:09:06.851Z,94011.38
2022-12-25T05:11:35.073Z,94017.25
2022-12-25T05:14:02.989Z,93999.72
2022-12-25T05:16:31.111Z,94020.47
2022-12-25T05:18:59.187Z,94012.56
2022-12-25T05:21:27.236Z,94019.66
2022-12-25T05:23:55.097Z,94014.97
2022-12-25T05:26:25.914Z,94017.13
2022-12-25T05:28:55.153Z,94006.28
2022-12-25T05:31:23.559Z,94008.34
2022-12-25T05:33:52.788Z,94013.84
2022-12-25T05:36:20.788Z,94016.56
2022-12-25T05:38:48.913Z,94015.66
2022-12-25T05:41:17.042Z,94026.25
2022-12-25T05:43:45.213Z,94023.63
2022-12-25T05:46:14.220Z,94011.91
2022-12-25T05:48:42.181Z,94030.59
2022-12-25T05:51:12.364Z,94029.13
2022-12-25T05:53:41.975Z,94029.78
2022-12-25T05:56:10.511Z,94030.72
2022-12-25T05:58:39.976Z,94040.31
2022-12-25T06:01:14.026Z,94034.53
2022-12-25T06:03:42.187Z,94044.41
2022-12-25T06:06:11.170Z,94044.50
2022-12-25T06:08:39.138Z,94037.69
2022-12-25T06:11:08.097Z,94035.44
2022-12-25T06:13:36.822Z,94058.25
2022-12-25T06:16:10.258Z,94059.41
2022-12-25T06:18:44.368Z,94061.31
2022-12-25T06:21:14.720Z,94059.34
2022-12-25T06:23:42.999Z,94068.78
2022-12-25T06:26:14.679Z,94066.50
2022-12-25T06:28:42.657Z,94068.56
2022-12-25T06:31:14.739Z,94079.28
2022-12-25T06:33:43.719Z,94073.41
2022-12-25T06:36:17.532Z,94073.66
2022-12-25T06:38:45.560Z,94060.88
2022-12-25T06:41:16.616Z,94077.53
2022-12-25T06:43:52.094Z,94071.00
2022-12-25T06:46:21.051Z,94079.63
2022-12-25T06:48:50.160Z,94081.91
2022-12-25T06:51:26.631Z,94082.78
2022-12-25T06:53:55.842Z,94087.44
2022-12-25T06:56:27.147Z,94089.59
2022-12-25T06:58:57.348Z,94082.88
2022-12-25T07:01:34.884Z,94101.81
2022-12-25T07:04:07.887Z,94106.81
2022-12-25T07:06:36.200Z,94109.75
2022-12-25T07:09:04.326Z,94102.38
2022-12-25T07:11:32.329Z,94105.19
2022-12-25T07:14:00.273Z,94115.72
2022-12-25T07:16:28.287Z,94122.56
2022-12-25T07:18:56.280Z,94125.78
2022-12-25T07:21:24.519Z,94122.06
2022-12-25T07:23:52.754Z,94125.38
2022-12-25T07:26:21.211Z,94110.59
2022-12-25T07:28:49.091Z,94124.00
2022-12-25T07:31:18.566Z,94131.31
2022-12-25T07:33:47.108Z,94132.03
2022-12-25T07:36:15.826Z,94127.84
2022-12-25T07:38:45.046Z,94121.31
2022-12-25T07:41:13.490Z,94122.88
2022-12-25T07:43:41.715Z,94119.94
2022-12-25T07:46:10.174Z,94122.06
2022-12-25T07:48:38.250Z,94124.50
2022-12-25T07:51:10.530Z,94118.47
2022-12-25T07:53:39.667Z,94122.31
2022-12-25T07:56:15.315Z,94102.16
2022-12-25T07:58:43.765Z,94123.69
2022-12-25T08:01:18.320Z,94134.13
2022-12-25T08:03:55.358Z,94135.53
2022-12-25T08:06:30.120Z,94150.31
2022-12-25T08:09:07.487Z,94153.66
2022-12-25T08:11:37.588Z,94143.91
2022-12-25T08:14:08.021Z,94158.94
2022-12-25T08:16:41.875Z,94159.81
2022-12-25T08:19:10.630Z,94142.09
2022-12-25T08:21:39.188Z,94159.13
2022-12-25T08:24:07.886Z,94170.81
2022-12-25T08:26:36.714Z,94163.94
2022-12-25T08:39:05.741Z,94148.00
2022-12-25T08:41:36.952Z,94155.09
2022-12-25T08:44:06.678Z,94136.31
2022-12-25T08:46:37.154Z,94143.91
2022-12-25T08:49:06.276Z,94130.94
2022-12-25T08:51:34.801Z,94131.69
2022-12-25T08:54:05.701Z,94132.84
2022-12-25T08:56:34.143Z,94141.41
2022-12-25T08:59:03.697Z,94139.19
2022-12-25T09:01:32.435Z,94137.75
2022-12-25T09:04:00.869Z,94146.44
2022-12-25T09:06:29.540Z,94145.06
2022-12-25T09:08:57.776Z,94146.75
2022-12-25T09:11:26.299Z,94135.91
2022-12-25T09:13:54.920Z,94139.56
2022-12-25T09:16:23.902Z,94151.91
2022-12-25T09:18:52.711Z,94143.19
2022-12-25T09:21:21.183Z,94132.34
2022-12-25T09:23:49.839Z,94140.63
2022-12-25T09:26:19.538Z,94147.44
2022-12-25T09:28:51.933Z,94139.41
2022-12-25T09:31:22.687Z,94135.31
2022-12-25T09:33:52.207Z,94131.84
2022-12-25T09:36:23.789Z,94128.41
2022-12-25T09:38:53.109Z,94136.94
2022-12-25T09:41:30.608Z,94127.22
2022-12-25T09:44:13.894Z,94118.25
2022-12-25T09:46:53.811Z,94123.00
2022-12-25T09:49:39.477Z,94127.78
2022-12-25T09:52:31.297Z,94118.78
2022-12-25T09:55:17.917Z,94113.44
2022-12-25T09:57:52.964Z,94123.06
2022-12-25T10:00:23.831Z,94128.06
2022-12-25T10:03:04.208Z,94119.28
2022-12-25T10:06:10.110Z,94120.03
2022-12-25T10:08:48.110Z,94123.25
2022-12-25T10:11:31.333Z,94107.94
2022-12-25T10:14:25.139Z,94115.44
2022-12-25T10:17:17.274Z,94110.50
2022-12-25T10:19:56.077Z,94102.31
2022-12-25T10:22:29.381Z,94110.72
2022-12-25T10:25:00.475Z,94109.91
2022-12-25T10:27:41.308Z,94099.97
2022-12-25T10:30:17.071Z,94103.31
2022-12-25T10:32:46.939Z,94106.41
2022-12-25T10:35:18.914Z,94108.59
2022-12-25T10:37:56.030Z,94102.19
2022-12-25T10:40:24.409Z,94096.19
2022-12-25T10:43:01.825Z,94095.94
2022-12-25T10:45:30.297Z,94094.63
2022-12-25T10:48:07.894Z,94099.06
2022-12-25T10:50:43.738Z,94093.25
2022-12-25T10:53:23.437Z,94093.63
2022-12-25T10:56:06.812Z,94100.94
2022-12-25T10:58:35.247Z,94099.63
2022-12-25T11:01:06.845Z,94094.72
2022-12-25T11:03:39.375Z,94105.59
2022-12-25T11:06:22.455Z,94097.63
2022-12-25T11:09:01.715Z,94110.44
2022-12-25T11:11:31.352Z,94105.16
2022-12-25T11:14:02.624Z,94102.59
2022-12-25T11:16:38.629Z,94103.34
2022-12-25T11:19:29.463Z,94113.91
2022-12-25T11:22:00.657Z,94102.63
2022-12-25T11:24:32.742Z,94100.66
2022-12-25T11:27:04.910Z,94115.97
2022-12-25T11:29:49.390Z,94121.59
2022-12-25T11:32:23.886Z,94118.06
2022-12-25T11:34:53.587Z,94116.38
2022-12-25T11:37:33.852Z,94108.38
2022-12-25T11:40:02.759Z,94105.84
2022-12-25T11:42:47.936Z,94107.00
2022-12-25T11:45:21.201Z,94115.13
2022-12-25T11:48:09.496Z,94113.78
2022-12-25T11:50:53.706Z,94105.69
2022-12-25T11:53:54.646Z,94108.41
2022-12-25T11:56:26.536Z,94118.28
2022-12-25T11:59:01.114Z,94113.47
2022-12-25T12:01:37.565Z,94115.72
2022-12-25T12:04:20.190Z,94110.84
2022-12-25T12:07:15.225Z,94117.00
2022-12-25T12:10:05.393Z,94120.41
2022-12-25T12:12:46.807Z,94123.63
2022-12-25T12:15:36.264Z,94112.03
2022-12-25T12:18:10.874Z,94121.38
2022-12-25T12:20:39.383Z,94129.28
2022-12-25T12:23:16.116Z,94129.38
2022-12-25T12:25:46.169Z,94127.41
2022-12-25T12:28:23.032Z,94132.44
2022-12-25T12:31:05.186Z,94130.00
2022-12-25T12:33:51.133Z,94139.09
2022-12-25T12:36:34.462Z,94147.75
2022-12-25T12:39:06.345Z,94147.72
2022-12-25T12:41:45.066Z,94152.56
2022-12-25T12:44:15.046Z,94157.63
2022-12-25T12:46:57.938Z,94147.50
2022-12-25T12:49:33.188Z,94157.03
2022-12-25T12:52:26.650Z,94159.88
2022-12-25T12:55:05.237Z,94166.09
2022-12-25T12:57:41.831Z,94162.91
2022-12-25T13:00:52.881Z,94168.84
2022-12-25T13:04:05.505Z,94174.91
2022-12-25T13:06:51.618Z,94182.56
2022-12-25T13:09:44.601Z,94176.94
2022-12-25T13:12:15.468Z,94177.69
2022-12-25T13:14:46.586Z,94180.38
2022-12-25T13:17:26.454Z,94181.78
2022-12-25T13:20:00.061Z,94176.91
2022-12-25T13:22:34.920Z,94180.00
2022-12-25T13:25:09.303Z,94176.00
2022-12-25T13:27:37.752Z,94179.72
2022-12-25T13:30:20.077Z,94180.72
2022-12-25T13:32:49.691Z,94178.38
2022-12-25T13:35:21.586Z,94176.63
2022-12-25T13:37:50.901Z,94182.22
2022-12-25T13:40:28.132Z,94181.88
2022-12-25T13:43:00.840Z,94167.94
2022-12-25T13:45:31.440Z,94177.97
2022-12-25T13:48:16.330Z,94176.53
2022-12-25T13:50:48.825Z,94184.22
2022-12-25T13:53:18.530Z,94186.91
2022-12-25T13:55:52.984Z,94189.00
2022-12-25T13:58:31.112Z,94187.72
2022-12-25T14:01:01.977Z,94195.59
2022-12-25T14:03:46.004Z,94194.22
2022-12-25T14:06:21.278Z,94199.13
2022-12-25T14:08:50.315Z,94197.84
2022-12-25T14:11:22.604Z,94200.03
2022-12-25T14:13:57.142Z,94193.75
2022-12-25T14:16:27.236Z,94194.94
2022-12-25T14:18:59.165Z,94198.28
2022-12-25T14:21:33.747Z,94190.38
2022-12-25T14:24:02.552Z,94204.41
2022-12-25T14:26:34.696Z,94206.50
2022-12-25T14:29:11.185Z,94208.84
2022-12-25T14:31:47.292Z,94205.34
2022-12-25T14:34:23.141Z,94209.22
2022-12-25T14:36:53.303Z,94208.16
2022-12-25T14:39:40.214Z,94207.81
2022-12-25T14:42:24.263Z,94215.25
2022-12-25T14:45:26.508Z,94212.31
2022-12-25T14:48:21.175Z,94217.97
2022-12-25T14:51:32.979Z,94213.78
2022-12-25T14:54:04.443Z,94217.00
2022-12-25T14:56:39.608Z,94217.69
2022-12-25T14:59:21.468Z,94230.34
2022-12-25T15:01:55.228Z,94230.56
2022-12-25T15:04:24.552Z,94223.72
2022-12-25T15:07:01.956Z,94231.63
2022-12-25T15:09:31.067Z,94227.56
2022-12-25T15:11:59.703Z,94222.84
2022-12-25T15:14:28.298Z,94227.50
2022-12-25T15:16:59.383Z,94231.50
2022-12-25T15:19:36.936Z,94235.31
2022-12-25T15:22:06.985Z,94237.53
2022-12-25T15:24:35.568Z,94239.97
2022-12-25T15:27:05.747Z,94244.63
2022-12-25T15:32:24.641Z,94241.91
2022-12-25T15:34:54.321Z,94242.22
2022-12-25T15:37:23.112Z,94245.34
2022-12-25T15:39:51.667Z,94248.91
2022-12-25T15:42:25.269Z,94252.97
2022-12-25T15:44:54.460Z,94254.25
2022-12-25T15:47:23.349Z,94261.66
2022-12-25T15:49:52.004Z,94264.13
2022-12-25T15:52:20.573Z,94266.03
2022-12-25T15:54:49.176Z,94264.69
2022-12-25T15:57:21.593Z,94266.38
2022-12-25T15:59:50.134Z,94269.44
2022-12-25T16:02:21.157Z,94274.00
2022-12-25T16:04:51.384Z,94273.59
2022-12-25T16:07:23.881Z,94284.44
2022-12-25T16:09:53.197Z,94285.50
2022-12-25T16:12:21.892Z,94286.50
2022-12-25T16:14:50.455Z,94286.16
2022-12-25T16:17:19.112Z,94296.56
2022-12-25T16:19:47.524Z,94293.13
2022-12-25T16:22:25.967Z,94287.59
2022-12-25T16:24:55.146Z,94297.44
2022-12-25T16:27:23.394Z,94292.72
2022-12-25T16:29:52.583Z,94295.38
2022-12-25T16:32:20.974Z,94295.19
2022-12-25T16:34:49.695Z,94296.00
2022-12-25T16:37:18.438Z,94299.25
2022-12-25T16:39:46.991Z,94310.63
2022-12-25T16:42:15.748Z,94287.19
2022-12-25T16:44:44.374Z,94306.31
2022-12-25T16:47:12.863Z,94305.09
2022-12-25T16:49:41.320Z,94311.59
2022-12-25T16:52:09.900Z,94325.81
2022-12-25T16:54:38.280Z,94327.44
2022-12-25T16:57:06.589Z,94334.13
2022-12-25T16:59:36.307Z,94337.31
2022-12-25T17:02:04.966Z,94343.16
2022-12-25T17:04:33.697Z,94339.25
2022-12-25T17:07:02.211Z,94353.94
2022-12-25T17:09:31.552Z,94352.50
2022-12-25T17:12:00.102Z,94360.63
2022-12-25T17:14:28.722Z,94349.97
2022-12-25T17:16:57.110Z,94362.97
2022-12-25T17:19:25.903Z,94350.72
2022-12-25T17:22:00.015Z,94369.13
2022-12-25T17:24:30.288Z,94369.91
2022-12-25T17:26:58.851Z,94371.66
2022-12-25T17:29:27.430Z,94369.63
2022-12-25T17:31:56.208Z,94366.94
2022-12-25T17:34:24.707Z,94367.41
2022-12-25T17:36:54.920Z,94368.81
2022-12-25T17:39:23.387Z,94372.66
2022-12-25T17:41:55.794Z,94377.31
2022-12-25T17:44:24.429Z,94379.16
2022-12-25T17:46:52.966Z,94386.47
2022-12-25T17:49:22.762Z,94393.72
2022-12-25T17:51:51.317Z,94390.31
2022-12-25T17:54:19.928Z,94392.41
2022-12-25T17:56:49.657Z,94392.34
2022-12-25T17:59:23.568Z,94383.47
2022-12-25T18:01:52.171Z,94385.75
2022-12-25T18:04:21.188Z,94388.16
2022-12-25T18:06:49.558Z,94386.81
2022-12-25T18:09:19.168Z,94386.47
2022-12-25T18:11:48.728Z,94395.94
2022-12-25T18:14:18.131Z,94404.53
2022-12-25T18:16:47.182Z,94404.94
2022-12-25T18:19:18.750Z,94397.53
2022-12-25T18:21:47.321Z,94405.69
2022-12-25T18:24:15.938Z,94401.94
2022-12-25T18:26:44.589Z,94409.78
2022-12-25T18:29:12.883Z,94412.59
2022-12-25T18:31:44.074Z,94402.75
2022-12-25T18:34:12.627Z,94405.78
2022-12-25T18:36:41.325Z,94401.13
2022-12-25T18:39:11.750Z,94405.78
2022-12-25T18:42:00.246Z,94413.03
2022-12-25T18:44:30.517Z,94391.44
2022-12-25T18:46:59.088Z,94412.75
2022-12-25T18:49:27.340Z,94415.59
2022-12-25T18:52:49.766Z,94421.25
2022-12-25T18:54:45.581Z,94419.97
2022-12-25T18:57:14.105Z,94417.34
2022-12-25T18:59:42.757Z,94413.34
2022-12-25T19:02:12.658Z,94413.63
2022-12-25T19:04:43.957Z,94413.34
2022-12-25T19:07:13.019Z,94409.00
2022-12-25T19:09:41.491Z,94417.44
2022-12-25T19:12:10.183Z,94418.34
2022-12-25T19:14:48.073Z,94423.88
2022-12-25T19:17:18.279Z,94417.06
2022-12-25T19:19:47.033Z,94415.25
2022-12-25T19:22:15.432Z,94422.09
2022-12-25T19:24:44.261Z,94424.41
2022-12-25T19:27:12.843Z,94428.50
2022-12-25T19:29:41.257Z,94429.50
2022-12-25T19:32:09.767Z,94429.34
2022-12-25T19:34:38.723Z,94430.47
2022-12-25T19:37:07.667Z,94437.09
2022-12-25T19:39:35.962Z,94439.38
2022-12-25T19:42:04.597Z,94436.97
2022-12-25T19:44:33.146Z,94436.97
2022-12-25T19:47:01.717Z,94432.19
2022-12-25T19:49:30.175Z,94439.53
2022-12-25T19:51:58.715Z,94443.88
2022-12-25T19:54:29.803Z,94440.72
2022-12-25T19:56:58.352Z,94441.91
2022-12-25T19:59:26.737Z,94445.16
2022-12-25T20:01:55.927Z,94399.91
2022-12-25T20:04:24.453Z,94397.25
2022-12-25T20:06:52.740Z,94430.47
2022-12-25T20:09:21.907Z,94439.00
2022-12-25T20:11:50.484Z,94432.88
2022-12-25T20:14:19.916Z,94429.63
2022-12-25T20:16:48.491Z,94432.50
2022-12-25T20:19:17.028Z,94429.13
2022-12-25T20:21:46.220Z,94436.00
2022-12-25T20:24:14.752Z,94427.59
2022-12-25T20:26:47.499Z,94366.91
2022-12-25T20:29:16.713Z,94428.50
2022-12-25T20:31:45.689Z,94426.44
2022-12-25T20:34:14.120Z,94425.38
2022-12-25T20:36:43.555Z,94420.41
2022-12-25T20:39:12.447Z,94426.13
2022-12-25T20:41:41.166Z,94432.75
2022-12-25T20:44:10.603Z,94435.16
2022-12-25T20:46:39.475Z,94435.63
2022-12-25T20:49:08.113Z,94441.47
2022-12-25T20:51:39.388Z,94435.09
2022-12-25T20:54:10.137Z,94437.66
2022-12-25T20:56:39.038Z,94438.19
2022-12-25T20:59:07.432Z,94437.19
2022-12-25T21:01:36.093Z,94421.31
2022-12-25T21:04:04.773Z,94441.44
2022-12-25T21:06:33.373Z,94441.22
2022-12-25T21:09:01.953Z,94442.66
2022-12-25T21:11:31.769Z,94435.59
2022-12-25T21:14:00.392Z,94444.44
2022-12-25T21:16:29.127Z,94441.34
2022-12-25T21:18:59.169Z,94451.47
2022-12-25T21:21:28.102Z,94449.28
2022-12-25T21:23:57.690Z,94449.50
2022-12-25T21:26:28.837Z,94448.28
2022-12-25T21:29:00.630Z,94456.19
2022-12-25T21:31:30.546Z,94458.81
2022-12-25T21:33:59.729Z,94458.66
2022-12-25T21:36:34.332Z,94453.97
2022-12-25T21:39:06.187Z,94455.91
2022-12-25T21:41:40.064Z,94450.28
2022-12-25T21:44:09.419Z,94449.34
2022-12-25T21:46:37.725Z,94455.91
2022-12-25T21:49:06.551Z,94464.44
2022-12-25T21:51:53.973Z,94461.75
2022-12-25T21:54:23.507Z,94443.06
2022-12-25T21:56:51.516Z,94454.34
2022-12-25T21:59:21.625Z,94452.53
2022-12-25T22:01:51.474Z,94451.25
2022-12-25T22:04:22.601Z,94447.63
2022-12-25T22:07:09.773Z,94448.06
2022-12-25T22:09:37.917Z,94449.59
2022-12-25T22:12:27.411Z,94457.34
2022-12-25T22:15:03.159Z,94445.16
2022-12-25T22:17:58.483Z,94447.38
2022-12-25T22:20:34.948Z,94444.13
2022-12-25T22:23:04.167Z,94442.56
2022-12-25T22:25:32.275Z,94450.78
2022-12-25T22:28:00.263Z,94443.75
2022-12-25T22:30:29.499Z,94441.75
2022-12-25T22:32:57.915Z,94453.22
2022-12-25T22:35:26.148Z,94454.72
2022-12-25T22:37:54.529Z,94447.81
2022-12-25T22:40:22.604Z,94447.97
2022-12-25T22:42:54.163Z,94454.25
2022-12-25T22:45:22.728Z,94456.06
2022-12-25T22:47:50.775Z,94449.88
2022-12-25T22:50:19.113Z,94440.84
2022-12-25T22:52:47.374Z,94445.44
2022-12-25T22:55:19.382Z,94444.66
2022-12-25T22:57:47.613Z,94451.22
2022-12-25T23:00:15.634Z,94451.22
2022-12-25T23:02:43.976Z,94448.25
2022-12-25T23:05:12.059Z,94459.59
2022-12-25T23:07:40.587Z,94454.00
2022-12-25T23:10:09.289Z,94443.50
2022-12-25T23:12:55.682Z,94452.84
2022-12-25T23:15:23.865Z,94453.72
2022-12-25T23:18:10.194Z,94456.50
2022-12-25T23:20:56.836Z,94459.91
2022-12-25T23:23:43.360Z,94453.25
2022-12-25T23:26:11.998Z,94449.94
2022-12-25T23:29:00.698Z,94454.19
2022-12-25T23:31:36.780Z,94448.09
2022-12-25T23:34:06.443Z,94446.34
2022-12-25T23:36:35.116Z,94449.97
2022-12-25T23:39:09.037Z,94452.25
2022-12-25T23:41:39.747Z,94453.22
2022-12-25T23:44:08.513Z,94460.75
2022-12-25T23:46:37.360Z,94454.88
2022-12-25T23:49:06.391Z,94455.31
2022-12-25T23:51:40.066Z,94459.13
2022-12-25T23:54:08.233Z,94464.34
2022-12-25T23:56:37.022Z,94469.28
2022-12-25T23:59:06.369Z,94467.78
